Time;durP1;ratioP1;P1;durP2;ratioP2;P2;SDS_P1;SDS_P2;PMS_P1;PMS_P2;Temp;Humidity;BMP_temperature;BMP_pressure;BME280_temperature;BME280_humidity;BME280_pressure;Samples;Min_cycle;Max_cycle;Signal;HPM_P1;HPM_P2
2023/01/30 00:01:43;;;;;;;46.50;41.57;;;;;;;5.45;100.00;100544.31;5104001;28;20465;-49
2023/01/30 00:04:12;;;;;;;56.43;39.87;;;;;;;5.44;100.00;100540.00;5103640;28;21213;-52
2023/01/30 00:06:44;;;;;;;60.73;41.17;;;;;;;5.44;100.00;100526.78;5104078;28;20437;-44
2023/01/30 00:09:13;;;;;;;46.77;41.20;;;;;;;5.44;100.00;100523.31;5104213;28;20788;-51
2023/01/30 00:11:41;;;;;;;43.47;39.43;;;;;;;5.44;100.00;100507.44;5104174;28;20465;-51
2023/01/30 00:14:09;;;;;;;45.40;40.17;;;;;;;5.45;100.00;100509.09;5103452;28;21154;-50
2023/01/30 00:16:37;;;;;;;44.10;39.97;;;;;;;5.42;100.00;100510.28;5103824;28;20447;-51
2023/01/30 00:19:05;;;;;;;45.73;41.30;;;;;;;5.42;100.00;100504.97;5103724;28;20502;-46
2023/01/30 00:21:33;;;;;;;45.93;41.40;;;;;;;5.43;100.00;100498.72;5103948;28;20449;-48
2023/01/30 00:24:02;;;;;;;44.07;39.93;;;;;;;5.43;100.00;100487.31;5103292;28;20441;-49
2023/01/30 00:26:30;;;;;;;45.13;40.90;;;;;;;5.44;100.00;100488.94;5103964;28;20520;-49
2023/01/30 00:28:58;;;;;;;44.53;40.40;;;;;;;5.45;100.00;100458.84;5103332;28;20455;-47
2023/01/30 00:31:26;;;;;;;45.63;41.03;;;;;;;5.46;100.00;100476.38;5103276;28;20517;-45
2023/01/30 00:33:54;;;;;;;42.87;38.63;;;;;;;5.46;100.00;100463.16;5102528;28;20489;-46
2023/01/30 00:36:21;;;;;;;44.60;40.83;;;;;;;5.45;100.00;100457.03;5103757;28;20478;-47
2023/01/30 00:38:49;;;;;;;43.57;39.73;;;;;;;5.42;100.00;100457.38;5091154;28;20878;-48
2023/01/30 00:41:18;;;;;;;42.10;38.20;;;;;;;5.46;100.00;100452.59;5093688;28;20449;-46
2023/01/30 00:49:19;;;;;;;42.50;38.07;;;;;;;5.48;100.00;100456.69;5102607;28;20429;-46
2023/01/30 00:51:47;;;;;;;41.30;37.77;;;;;;;5.50;100.00;100435.34;5102771;28;20481;-47
2023/01/30 00:54:15;;;;;;;39.80;36.60;;;;;;;5.50;100.00;100436.19;5101867;28;21012;-45
2023/01/30 00:56:44;;;;;;;39.93;36.73;;;;;;;5.52;100.00;100426.28;5102426;28;20455;-49
2023/01/30 00:59:11;;;;;;;40.00;36.40;;;;;;;5.56;100.00;100443.44;5102431;28;20437;-49
2023/01/30 01:01:39;;;;;;;38.70;35.50;;;;;;;5.61;100.00;100428.88;5102732;28;20465;-49
2023/01/30 01:04:09;;;;;;;38.93;35.90;;;;;;;5.56;100.00;100402.94;5102146;28;20803;-49
2023/01/30 01:06:37;;;;;;;41.90;37.97;;;;;;;5.61;100.00;100408.56;5102914;28;20430;-47
2023/01/30 01:09:05;;;;;;;39.30;36.07;;;;;;;5.62;100.00;100386.38;5102788;28;20525;-50
2023/01/30 01:11:33;;;;;;;39.83;36.30;;;;;;;5.62;100.00;100389.03;5101991;28;20449;-45
2023/01/30 01:14:04;;;;;;;38.03;35.27;;;;;;;5.66;100.00;100378.91;5101956;28;20873;-48
2023/01/30 01:16:33;;;;;;;36.03;33.50;;;;;;;5.70;100.00;100396.94;5102857;28;20452;-50
2023/01/30 01:19:02;;;;;;;40.70;34.93;;;;;;;5.71;100.00;100379.22;5102561;28;20453;-45
2023/01/30 01:21:30;;;;;;;38.23;35.10;;;;;;;5.71;100.00;100380.03;5101641;28;20480;-48
2023/01/30 01:23:59;;;;;;;36.33;33.23;;;;;;;5.76;100.00;100369.78;5101736;28;20471;-50
2023/01/30 01:26:27;;;;;;;37.63;35.03;;;;;;;5.74;100.00;100377.06;5101865;28;20433;-49
2023/01/30 01:28:55;;;;;;;36.63;33.90;;;;;;;5.75;100.00;100357.53;5102258;28;20461;-52
2023/01/30 01:31:25;;;;;;;36.30;33.50;;;;;;;5.76;100.00;100366.31;5101769;28;20453;-51
2023/01/30 01:33:53;;;;;;;37.93;34.63;;;;;;;5.78;100.00;100362.47;5101318;28;20842;-48
2023/01/30 01:36:21;;;;;;;37.93;34.70;;;;;;;5.78;100.00;100337.84;5102257;28;20429;-46
2023/01/30 01:39:09;;;;;;;35.30;33.03;;;;;;;5.79;100.00;100348.28;5089682;28;20435;-52
2023/01/30 01:41:35;;;;;;;36.77;34.23;;;;;;;5.81;100.00;100348.06;5093107;28;20449;-45
2023/01/30 01:44:06;;;;;;;37.03;33.93;;;;;;;5.82;100.00;100344.44;5100887;28;20449;-50
2023/01/30 01:46:38;;;;;;;35.00;32.70;;;;;;;5.83;100.00;100351.34;5102324;28;20501;-47
2023/01/30 01:49:12;;;;;;;37.30;34.00;;;;;;;5.86;100.00;100353.69;5102385;28;20512;-50
2023/01/30 01:51:46;;;;;;;37.20;34.50;;;;;;;5.89;100.00;100340.94;5101292;28;20536;-49
2023/01/30 01:54:18;;;;;;;35.20;33.17;;;;;;;5.90;100.00;100361.13;5100585;28;20994;-47
2023/01/30 01:56:49;;;;;;;36.00;33.20;;;;;;;5.95;100.00;100376.47;5101090;28;20430;-46
2023/01/30 01:59:22;;;;;;;34.37;32.17;;;;;;;5.96;100.00;100359.59;5101608;28;20444;-52
2023/01/30 02:01:55;;;;;;;33.33;31.60;;;;;;;5.98;100.00;100365.53;5102264;28;20457;-44
2023/01/30 02:07:08;;;;;;;104.00;99.80;;;;;;;5.47;100.00;100399.50;5100779;28;20520;-48
2023/01/30 02:09:36;;;;;;;141.37;135.80;;;;;;;5.32;100.00;100395.09;5100540;28;20431;-46
2023/01/30 02:12:05;;;;;;;158.57;152.50;;;;;;;5.28;100.00;100399.09;5102395;28;20888;-52
2023/01/30 02:14:34;;;;;;;163.70;157.57;;;;;;;5.21;100.00;100392.84;5100515;28;20609;-48
2023/01/30 02:17:03;;;;;;;190.27;182.47;;;;;;;5.15;100.00;100373.19;5101097;28;20493;-48
2023/01/30 02:19:39;;;;;;;166.87;160.17;;;;;;;5.13;100.00;100384.94;5101455;28;20463;-46
2023/01/30 02:22:35;;;;;;;137.17;131.20;;;;;;;5.08;100.00;100371.41;5100494;28;20441;-44
2023/01/30 02:25:45;;;;;;;114.10;109.30;;;;;;;5.08;100.00;100361.66;5099952;28;20469;-47
2023/01/30 02:28:36;;;;;;;87.90;83.30;;;;;;;5.08;100.00;100374.84;5062249;28;20455;-46
2023/01/30 02:31:17;;;;;;;75.00;71.13;;;;;;;5.10;100.00;100372.91;5101637;28;20449;-49
2023/01/30 02:33:56;;;;;;;71.40;67.03;;;;;;;5.10;100.00;100375.53;5101279;28;20560;-47
2023/01/30 02:36:32;;;;;;;66.93;62.70;;;;;;;5.10;100.00;100377.34;5101670;28;20429;-50
2023/01/30 02:39:07;;;;;;;65.87;61.60;;;;;;;5.10;100.00;100364.13;5089234;28;20435;-50
2023/01/30 02:41:43;;;;;;;61.93;57.70;;;;;;;5.09;100.00;100371.22;5093921;28;20441;-51
2023/01/30 02:44:17;;;;;;;59.40;55.70;;;;;;;5.12;100.00;100388.56;5100927;28;20456;-48
2023/01/30 02:46:53;;;;;;;62.50;58.00;;;;;;;5.11;100.00;100379.00;5101695;28;20447;-50
2023/01/30 02:49:26;;;;;;;58.57;54.83;;;;;;;5.10;100.00;100359.69;5101713;28;20424;-48
2023/01/30 02:51:56;;;;;;;61.07;57.00;;;;;;;5.11;100.00;100352.56;5102106;28;20449;-51
2023/01/30 02:54:24;;;;;;;57.97;53.53;;;;;;;5.12;100.00;100348.91;5101060;28;20522;-46
2023/01/30 02:56:53;;;;;;;58.97;54.83;;;;;;;5.11;100.00;100357.88;5101819;28;20459;-53
2023/01/30 02:59:24;;;;;;;55.87;52.40;;;;;;;5.13;100.00;100358.50;5101857;28;20435;-48
2023/01/30 03:02:22;;;;;;;57.60;53.20;;;;;;;5.12;100.00;100360.31;5100939;28;20503;-48
2023/01/30 03:05:29;;;;;;;53.87;50.03;;;;;;;5.10;100.00;100358.84;5100858;28;20460;-46
2023/01/30 03:08:07;;;;;;;54.87;51.23;;;;;;;5.05;100.00;100346.13;5103770;28;20762;-48
2023/01/30 03:10:38;;;;;;;54.77;50.63;;;;;;;4.96;100.00;100323.38;5104773;28;20948;-47
2023/01/30 03:13:12;;;;;;;54.07;50.27;;;;;;;4.89;100.00;100317.13;5104495;28;20461;-51
2023/01/30 03:15:44;;;;;;;53.80;50.07;;;;;;;4.85;100.00;100343.06;5103884;28;20490;-47
2023/01/30 03:18:14;;;;;;;51.90;47.97;;;;;;;4.79;100.00;100367.50;5104516;28;20850;-49
2023/01/30 03:20:41;;;;;;;51.53;47.90;;;;;;;4.77;100.00;100369.50;5103206;28;20443;-50
2023/01/30 03:23:10;;;;;;;51.83;47.73;;;;;;;4.76;100.00;100364.38;5104053;28;20430;-50
2023/01/30 03:25:41;;;;;;;48.47;44.60;;;;;;;4.76;100.00;100346.72;5103921;28;20425;-47
2023/01/30 03:28:10;;;;;;;49.90;45.63;;;;;;;4.78;100.00;100342.09;5104210;28;20426;-49
2023/01/30 03:30:38;;;;;;;48.77;45.07;;;;;;;4.76;100.00;100335.31;5104427;28;20453;-46
2023/01/30 03:33:06;;;;;;;50.43;46.97;;;;;;;4.68;100.00;100330.91;5103900;28;20461;-46
2023/01/30 03:35:35;;;;;;;52.30;48.10;;;;;;;4.63;100.00;100316.56;5102806;28;20437;-46
2023/01/30 03:38:03;;;;;;;51.93;47.03;;;;;;;4.56;100.00;100313.75;5103756;28;20429;-46
2023/01/30 03:40:30;;;;;;;50.70;46.80;;;;;;;4.52;100.00;100324.81;5085501;28;20441;-47
2023/01/30 03:42:58;;;;;;;48.27;44.63;;;;;;;4.45;100.00;100327.28;5100506;28;20520;-47
2023/01/30 03:45:26;;;;;;;48.73;45.03;;;;;;;4.40;100.00;100335.72;5102729;28;20477;-50
2023/01/30 03:47:53;;;;;;;51.07;47.20;;;;;;;4.33;100.00;100336.56;5103211;28;20437;-44
2023/01/30 03:50:21;;;;;;;49.67;45.30;;;;;;;4.30;100.00;100342.97;5103696;28;21033;-46
2023/01/30 03:52:50;;;;;;;51.27;47.10;;;;;;;4.26;100.00;100330.28;5102795;28;20461;-47
2023/01/30 03:55:18;;;;;;;51.47;47.20;;;;;;;4.24;100.00;100350.75;5101692;28;20902;-46
2023/01/30 03:57:46;;;;;;;51.63;47.23;;;;;;;4.18;100.00;100361.97;5102799;28;20479;-50
2023/01/30 04:00:15;;;;;;;51.73;47.43;;;;;;;4.15;100.00;100357.03;5103138;28;20430;-49
2023/01/30 04:02:43;;;;;;;48.57;44.53;;;;;;;4.10;100.00;100349.59;5103979;28;20892;-47
2023/01/30 04:05:11;;;;;;;45.93;42.53;;;;;;;4.09;100.00;100358.47;5102677;28;20469;-48
2023/01/30 04:07:38;;;;;;;48.33;44.30;;;;;;;4.06;100.00;100350.88;5104763;28;20425;-50
2023/01/30 04:10:08;;;;;;;48.53;44.00;;;;;;;4.04;100.00;100346.78;5103926;28;20433;-50
2023/01/30 04:12:36;;;;;;;48.17;43.87;;;;;;;3.99;100.00;100338.53;5103258;28;20441;-49
2023/01/30 04:15:04;;;;;;;47.13;42.53;;;;;;;3.95;100.00;100338.03;5103032;28;20480;-53
2023/01/30 04:17:32;;;;;;;44.30;40.07;;;;;;;3.95;100.00;100331.91;5103440;28;20432;-48
2023/01/30 04:19:59;;;;;;;45.33;41.37;;;;;;;3.91;100.00;100342.81;5102862;28;20429;-48
2023/01/30 04:22:27;;;;;;;46.03;41.77;;;;;;;3.89;100.00;100339.50;5102973;28;20517;-51
2023/01/30 04:24:55;;;;;;;45.03;41.03;;;;;;;3.86;100.00;100331.09;5102627;28;20461;-51
2023/01/30 04:27:24;;;;;;;49.60;44.60;;;;;;;3.84;100.00;100322.53;5104077;28;20942;-49
2023/01/30 04:29:51;;;;;;;46.33;41.83;;;;;;;3.83;100.00;100326.16;5103637;28;20464;-48
2023/01/30 04:32:19;;;;;;;46.03;42.10;;;;;;;3.82;100.00;100333.22;5103052;28;20455;-50
2023/01/30 04:34:47;;;;;;;47.07;42.80;;;;;;;3.82;100.00;100329.78;5102297;28;20475;-47
2023/01/30 04:37:14;;;;;;;47.07;42.60;;;;;;;3.81;100.00;100315.78;5103108;28;20454;-46
2023/01/30 04:39:42;;;;;;;49.13;44.50;;;;;;;3.81;100.00;100321.03;5090390;28;20429;-51
2023/01/30 04:42:09;;;;;;;47.70;43.07;;;;;;;3.82;100.00;100312.13;5094495;28;21017;-52
2023/01/30 04:44:39;;;;;;;48.60;43.40;;;;;;;3.83;100.00;100312.97;5101903;28;20457;-49
2023/01/30 04:47:06;;;;;;;45.17;40.50;;;;;;;3.85;100.00;100322.34;5103380;28;20805;-47
2023/01/30 04:49:34;;;;;;;46.87;41.97;;;;;;;3.86;100.00;100320.53;5101957;28;20459;-51
2023/01/30 04:52:02;;;;;;;46.67;39.47;;;;;;;3.87;100.00;100315.13;5101505;28;20459;-47
2023/01/30 04:54:29;;;;;;;44.63;39.13;;;;;;;3.90;100.00;100325.34;5101183;28;20492;-45
2023/01/30 04:56:57;;;;;;;43.93;37.60;;;;;;;3.96;100.00;100315.94;5102095;28;20425;-47
2023/01/30 04:59:25;;;;;;;42.60;38.60;;;;;;;4.01;100.00;100316.25;5102929;28;20456;-47
2023/01/30 05:01:54;;;;;;;41.50;37.80;;;;;;;4.04;100.00;100315.94;5102151;28;20872;-46
2023/01/30 05:04:22;;;;;;;41.27;37.30;;;;;;;4.09;100.00;100300.44;5101528;28;20537;-50
2023/01/30 05:06:49;;;;;;;44.07;39.03;;;;;;;4.13;100.00;100314.94;5102483;28;20425;-47
2023/01/30 05:09:17;;;;;;;45.60;38.50;;;;;;;4.14;100.00;100321.06;5102460;28;20437;-47
2023/01/30 05:11:45;;;;;;;40.37;37.27;;;;;;;4.15;100.00;100312.16;5101826;28;21143;-46
2023/01/30 05:14:13;;;;;;;47.77;38.60;;;;;;;4.12;100.00;100310.66;5102151;28;20560;-48
2023/01/30 05:16:40;;;;;;;45.97;40.37;;;;;;;4.12;100.00;100310.66;5102604;28;20429;-46
2023/01/30 05:19:12;;;;;;;43.53;39.37;;;;;;;4.14;100.00;100300.78;5102245;28;20434;-44
2023/01/30 05:21:40;;;;;;;43.07;39.40;;;;;;;4.14;100.00;100305.22;5101970;28;20446;-45
2023/01/30 05:24:08;;;;;;;44.23;39.93;;;;;;;4.15;100.00;100307.69;5101258;28;20469;-47
2023/01/30 05:26:36;;;;;;;46.00;41.00;;;;;;;4.14;100.00;100299.94;5102165;28;20433;-46
2023/01/30 05:29:03;;;;;;;44.13;40.70;;;;;;;4.18;100.00;100296.00;5101746;28;20483;-46
2023/01/30 05:31:31;;;;;;;42.23;38.43;;;;;;;4.21;100.00;100285.09;5102155;28;20499;-49
2023/01/30 05:33:59;;;;;;;44.17;40.07;;;;;;;4.24;100.00;100292.69;5100715;28;20460;-50
2023/01/30 05:36:28;;;;;;;46.23;41.27;;;;;;;4.27;100.00;100300.28;5101595;28;20437;-49
2023/01/30 05:38:55;;;;;;;45.93;41.70;;;;;;;4.26;100.00;100299.44;5095165;28;20426;-44
2023/01/30 05:41:23;;;;;;;45.87;41.47;;;;;;;4.25;100.00;100300.44;5093063;28;20449;-49
2023/01/30 05:43:51;;;;;;;44.60;41.23;;;;;;;4.22;100.00;100290.19;5101047;28;20461;-45
2023/01/30 05:46:19;;;;;;;48.87;40.90;;;;;;;4.24;100.00;100305.88;5101078;28;20430;-44
2023/01/30 05:48:47;;;;;;;47.37;42.10;;;;;;;4.28;100.00;100308.00;5101053;28;21001;-45
2023/01/30 05:51:17;;;;;;;41.87;38.10;;;;;;;4.30;100.00;100297.31;5101240;28;20934;-44
2023/01/30 05:53:47;;;;;;;42.50;38.50;;;;;;;4.35;100.00;100302.91;5100706;28;20468;-46
2023/01/30 05:56:15;;;;;;;43.83;39.33;;;;;;;4.39;100.00;100288.38;5100375;28;20472;-45
2023/01/30 05:58:44;;;;;;;44.37;39.60;;;;;;;4.42;100.00;100291.47;5101523;28;20502;-45
2023/01/30 06:01:12;;;;;;;43.23;38.83;;;;;;;4.45;100.00;100290.31;5101525;28;20469;-46
2023/01/30 06:03:40;;;;;;;42.70;38.90;;;;;;;4.46;100.00;100282.25;5101484;28;20450;-51
2023/01/30 06:06:08;;;;;;;42.97;38.50;;;;;;;4.47;100.00;100276.00;5102020;28;20433;-51
2023/01/30 06:08:36;;;;;;;42.83;38.93;;;;;;;4.49;100.00;100281.09;5101749;28;20418;-52
2023/01/30 06:11:07;;;;;;;42.87;39.00;;;;;;;4.51;100.00;100278.28;5102387;28;20446;-48
2023/01/30 06:13:35;;;;;;;42.77;39.10;;;;;;;4.50;100.00;100268.72;5102118;28;20450;-47
2023/01/30 06:16:03;;;;;;;44.73;39.93;;;;;;;4.48;100.00;100259.13;5101807;28;20465;-50
2023/01/30 06:18:31;;;;;;;45.90;39.87;;;;;;;4.51;100.00;100265.88;5101844;28;20433;-49
2023/01/30 06:20:59;;;;;;;44.20;39.77;;;;;;;4.53;100.00;100263.09;5102099;28;20546;-49
2023/01/30 06:23:27;;;;;;;42.47;38.87;;;;;;;4.56;100.00;100254.84;5101847;28;20425;-48
2023/01/30 06:25:55;;;;;;;44.37;39.80;;;;;;;4.60;100.00;100249.03;5100958;28;20432;-48
2023/01/30 06:28:25;;;;;;;43.00;39.27;;;;;;;4.61;100.00;100258.59;5102815;28;20782;-47
2023/01/30 06:30:54;;;;;;;42.30;38.87;;;;;;;4.65;100.00;100256.47;5102472;28;20441;-52
2023/01/30 06:33:21;;;;;;;46.20;38.00;;;;;;;4.70;100.00;100251.47;5100865;28;20797;-47
2023/01/30 06:35:51;;;;;;;50.50;38.80;;;;;;;4.74;100.00;100261.53;5100005;28;20469;-48
2023/01/30 06:38:20;;;;;;;42.80;38.80;;;;;;;4.75;100.00;100260.53;5097661;28;20439;-48
2023/01/30 06:40:49;;;;;;;42.97;38.70;;;;;;;4.75;100.00;100268.47;5084606;28;20431;-49
2023/01/30 06:43:17;;;;;;;40.87;37.57;;;;;;;4.76;100.00;100256.91;5103264;28;20831;-46
2023/01/30 06:45:46;;;;;;;41.50;38.33;;;;;;;4.78;100.00;100256.75;5104758;28;20430;-46
2023/01/30 06:48:14;;;;;;;41.60;38.10;;;;;;;4.77;100.00;100250.63;5104715;28;20432;-51
2023/01/30 06:50:42;;;;;;;42.07;37.83;;;;;;;4.75;100.00;100263.19;5103680;28;20436;-50
2023/01/30 06:53:10;;;;;;;43.80;39.60;;;;;;;4.77;100.00;100252.44;5103028;28;20533;-46
2023/01/30 06:55:38;;;;;;;42.63;38.53;;;;;;;4.84;100.00;100251.59;5104515;28;20990;-47
2023/01/30 06:58:07;;;;;;;45.17;40.47;;;;;;;4.86;100.00;100249.63;5104033;28;20482;-44
2023/01/30 07:00:38;;;;;;;50.07;42.50;;;;;;;4.88;100.00;100252.91;5103598;28;20441;-46
2023/01/30 07:03:10;;;;;;;46.70;42.20;;;;;;;4.94;100.00;100267.22;5103804;28;20425;-49
2023/01/30 07:05:39;;;;;;;45.03;40.87;;;;;;;4.92;100.00;100258.66;5103486;28;20457;-44
2023/01/30 07:08:06;;;;;;;45.23;41.13;;;;;;;4.95;100.00;100259.16;5103534;28;20595;-45
2023/01/30 07:10:34;;;;;;;49.07;43.90;;;;;;;4.97;100.00;100262.44;5104704;28;20520;-53
2023/01/30 07:13:02;;;;;;;48.03;43.67;;;;;;;4.98;100.00;100264.09;5104798;28;20447;-46
2023/01/30 07:15:31;;;;;;;48.03;43.63;;;;;;;4.97;100.00;100262.44;5103102;28;20473;-46
2023/01/30 07:17:59;;;;;;;46.80;42.30;;;;;;;4.96;100.00;100250.22;5103838;28;20429;-44
2023/01/30 07:20:29;;;;;;;47.83;41.27;;;;;;;4.95;100.00;100261.78;5103497;28;20428;-44
2023/01/30 07:22:56;;;;;;;44.73;40.03;;;;;;;4.99;100.00;100260.44;5103844;28;20457;-44
2023/01/30 07:25:26;;;;;;;50.17;44.77;;;;;;;5.05;100.00;100263.41;5102368;28;20461;-44
2023/01/30 07:27:56;;;;;;;43.33;38.10;;;;;;;5.13;100.00;100244.84;5104051;28;20422;-44
2023/01/30 07:30:25;;;;;;;46.70;39.67;;;;;;;5.21;100.00;100247.44;5104568;28;20431;-48
2023/01/30 07:32:53;;;;;;;54.03;38.33;;;;;;;5.29;100.00;100245.56;5105386;28;20453;-49
2023/01/30 07:35:21;;;;;;;43.27;38.57;;;;;;;5.37;100.00;100244.72;5104705;28;20496;-50
2023/01/30 07:37:51;;;;;;;44.73;39.77;;;;;;;5.35;100.00;100244.03;5105270;28;20429;-51
2023/01/30 07:40:20;;;;;;;47.47;39.07;;;;;;;5.32;100.00;100247.88;5089114;28;21051;-47
2023/01/30 07:42:56;;;;;;;44.13;39.53;;;;;;;5.29;100.00;100247.38;5089877;28;20453;-45
2023/01/30 07:45:24;;;;;;;44.40;39.90;;;;;;;5.24;100.00;100242.63;5093355;28;20973;-46
2023/01/30 07:47:52;;;;;;;43.50;39.83;;;;;;;5.21;100.00;100242.16;5094053;28;20430;-44
2023/01/30 07:50:19;;;;;;;47.57;39.43;;;;;;;5.16;100.00;100241.88;5094040;28;20961;-47
2023/01/30 07:52:47;;;;;;;51.23;40.27;;;;;;;5.16;100.00;100245.34;5094034;28;20828;-50
2023/01/30 07:55:16;;;;;;;42.30;37.93;;;;;;;5.06;100.00;100239.44;5093031;28;20973;-47
2023/01/30 07:57:44;;;;;;;63.27;44.40;;;;;;;4.71;100.00;100264.53;5093901;28;20521;-44
2023/01/30 08:00:13;;;;;;;50.73;41.13;;;;;;;4.57;100.00;100269.69;5093804;28;20438;-49
2023/01/30 08:02:41;;;;;;;38.90;35.53;;;;;;;4.36;100.00;100272.88;5093719;28;20462;-47
2023/01/30 08:05:09;;;;;;;38.83;35.70;;;;;;;4.13;100.00;100263.97;5093119;28;20465;-45
2023/01/30 08:07:37;;;;;;;40.07;37.13;;;;;;;3.96;100.00;100267.63;5093699;28;20429;-44
2023/01/30 08:10:05;;;;;;;41.30;37.20;;;;;;;3.91;100.00;100270.78;5093609;28;20436;-46
2023/01/30 08:12:34;;;;;;;512.63;484.47;;;;;;;3.57;100.00;100278.00;5093798;28;20453;-44
2023/01/30 08:15:02;;;;;;;526.93;497.93;;;;;;;3.18;100.00;100239.06;5092879;28;20559;-42
2023/01/30 08:17:29;;;;;;;521.13;494.73;;;;;;;3.07;100.00;100288.59;5093637;28;20465;-44
2023/01/30 08:19:57;;;;;;;468.30;447.13;;;;;;;3.09;100.00;100294.50;5093534;28;20425;-48
2023/01/30 08:22:25;;;;;;;455.97;436.40;;;;;;;2.96;100.00;100304.66;5093282;28;20456;-45
2023/01/30 08:24:53;;;;;;;415.83;398.53;;;;;;;2.91;100.00;100296.41;5092710;28;20469;-45
2023/01/30 08:27:20;;;;;;;459.57;437.83;;;;;;;2.82;100.00;100324.50;5093628;28;20417;-42
2023/01/30 08:29:49;;;;;;;473.03;450.00;;;;;;;2.82;100.00;100324.50;5093377;28;20434;-43
2023/01/30 08:32:17;;;;;;;463.23;441.30;;;;;;;2.83;100.00;100291.94;5093055;28;20567;-42
2023/01/30 08:34:44;;;;;;;459.00;436.73;;;;;;;2.85;100.00;100291.78;5092508;28;20530;-44
2023/01/30 08:37:12;;;;;;;454.17;433.43;;;;;;;2.89;100.00;100293.94;5092940;28;20997;-42
2023/01/30 08:39:40;;;;;;;434.67;414.50;;;;;;;2.96;100.00;100287.03;5081141;28;20433;-41
2023/01/30 08:42:08;;;;;;;431.63;411.37;;;;;;;2.99;100.00;100273.56;5084646;28;20446;-42
2023/01/30 08:44:35;;;;;;;424.07;404.27;;;;;;;3.05;100.00;100274.72;5092226;28;20464;-43
2023/01/30 08:47:04;;;;;;;427.17;406.73;;;;;;;3.07;100.00;100268.34;5092933;28;20479;-45
2023/01/30 08:49:32;;;;;;;425.90;405.43;;;;;;;3.16;100.00;100267.38;5092862;28;20430;-44
2023/01/30 08:52:00;;;;;;;414.43;394.97;;;;;;;3.25;100.00;100266.41;5093046;28;20959;-47
2023/01/30 08:54:27;;;;;;;370.63;353.27;;;;;;;3.44;100.00;100265.28;5092270;28;20459;-44
2023/01/30 08:56:55;;;;;;;268.67;257.47;;;;;;;3.65;100.00;100263.00;5092797;28;20472;-42
2023/01/30 08:59:23;;;;;;;217.63;207.20;;;;;;;3.70;100.00;100244.88;5093015;28;20433;-41
2023/01/30 09:01:50;;;;;;;163.23;156.23;;;;;;;3.80;100.00;100257.91;5092473;28;20461;-47
2023/01/30 09:04:19;;;;;;;138.37;131.23;;;;;;;3.92;100.00;100244.22;5091556;28;20461;-45
2023/01/30 09:06:47;;;;;;;104.13;97.10;;;;;;;4.04;100.00;100254.41;5092754;28;20474;-46
2023/01/30 09:09:15;;;;;;;86.73;80.20;;;;;;;4.10;100.00;100243.22;5092629;28;20437;-42
2023/01/30 09:11:42;;;;;;;66.53;60.87;;;;;;;4.17;100.00;100236.28;5092409;28;20467;-44
2023/01/30 09:14:10;;;;;;;52.00;47.50;;;;;;;4.24;100.00;100227.50;5091542;28;20468;-47
2023/01/30 09:16:38;;;;;;;48.73;44.83;;;;;;;4.33;100.00;100244.19;5092098;28;20481;-47
2023/01/30 09:19:05;;;;;;;45.57;41.17;;;;;;;4.43;100.00;100236.88;5092376;28;20429;-42
2023/01/30 09:21:34;;;;;;;38.37;34.90;;;;;;;4.58;100.00;100227.25;5092257;28;20450;-43
2023/01/30 09:24:02;;;;;;;38.97;34.00;;;;;;;4.75;100.00;100228.84;5091483;28;20461;-49
2023/01/30 09:26:29;;;;;;;32.33;29.30;;;;;;;4.87;100.00;100214.25;5092296;28;20426;-44
2023/01/30 09:28:57;;;;;;;28.57;26.17;;;;;;;5.16;100.00;100218.06;5092085;28;20992;-42
2023/01/30 09:31:25;;;;;;;29.30;26.83;;;;;;;5.35;100.00;100192.00;5091896;28;21041;-42
2023/01/30 09:33:53;;;;;;;29.57;26.90;;;;;;;5.50;100.00;100199.97;5091650;28;20491;-42
2023/01/30 09:36:20;;;;;;;29.73;26.70;;;;;;;5.65;100.00;100198.22;5092096;28;20491;-46
2023/01/30 09:38:49;;;;;;;31.03;27.67;;;;;;;5.68;100.00;100204.97;5081205;28;20441;-42
2023/01/30 09:41:46;;;;;;;34.80;28.63;;;;;;;5.47;100.00;100187.94;5082931;28;20450;-42
2023/01/30 09:44:57;;;;;;;32.50;29.80;;;;;;;5.30;100.00;100207.56;5091190;28;20468;-43
2023/01/30 09:47:34;;;;;;;31.17;28.40;;;;;;;5.01;100.00;100260.28;5048018;28;20429;-47
2023/01/30 09:50:19;;;;;;;461.93;437.50;;;;;;;4.01;100.00;100236.28;5091868;28;20432;-43
2023/01/30 09:52:56;;;;;;;505.50;478.10;;;;;;;3.18;100.00;100233.78;5091740;28;20955;-46
2023/01/30 09:55:28;;;;;;;471.97;447.53;;;;;;;2.99;100.00;100180.53;5091114;28;20469;-41
2023/01/30 09:57:58;;;;;;;446.77;425.53;;;;;;;2.97;100.00;100235.19;5091778;28;20518;-41
2023/01/30 10:00:33;;;;;;;379.60;362.90;;;;;;;2.87;100.00;100256.38;5091752;28;20437;-41
2023/01/30 10:03:06;;;;;;;448.70;425.67;;;;;;;2.80;100.00;100252.75;5091312;28;20443;-41
2023/01/30 10:05:40;;;;;;;397.43;379.00;;;;;;;2.88;100.00;100247.50;5090396;28;20426;-40
2023/01/30 10:08:37;;;;;;;369.73;352.73;;;;;;;3.14;100.00;100242.97;5091076;28;20425;-44
2023/01/30 10:11:15;;;;;;;326.07;311.63;;;;;;;3.47;100.00;100235.13;5090789;28;20449;-43
2023/01/30 10:14:04;;;;;;;301.20;286.90;;;;;;;3.73;100.00;100244.53;5090444;28;20544;-44
2023/01/30 10:16:37;;;;;;;249.57;237.93;;;;;;;4.01;100.00;100234.47;5091083;28;20426;-45
2023/01/30 10:19:22;;;;;;;231.33;218.83;;;;;;;4.22;100.00;100223.41;5094393;28;20443;-42
2023/01/30 10:22:15;;;;;;;222.33;210.30;;;;;;;4.26;100.00;100215.00;5094279;28;20452;-41
2023/01/30 10:24:55;;;;;;;223.13;211.63;;;;;;;4.31;100.00;100220.56;5093752;28;20846;-45
2023/01/30 10:27:28;;;;;;;227.33;215.13;;;;;;;4.42;100.00;100212.28;5094280;28;20427;-46
2023/01/30 10:30:00;;;;;;;214.50;202.90;;;;;;;4.49;100.00;100217.72;5094715;28;20430;-42
2023/01/30 10:32:32;;;;;;;152.10;144.30;;;;;;;4.46;100.00;100212.78;5094316;28;20449;-46
2023/01/30 10:35:05;;;;;;;164.53;156.43;;;;;;;4.52;100.00;100222.66;5093532;28;20461;-42
2023/01/30 10:37:38;;;;;;;120.60;113.53;;;;;;;4.39;100.00;100228.47;5094092;28;20728;-42
2023/01/30 10:40:17;;;;;;;96.50;89.90;;;;;;;4.31;100.00;100228.50;5079994;28;20444;-43
2023/01/30 10:42:55;;;;;;;81.90;77.17;;;;;;;4.29;100.00;100248.97;5089296;28;20480;-42
2023/01/30 10:45:31;;;;;;;55.53;51.80;;;;;;;4.24;100.00;100242.53;5093253;28;21005;-46
2023/01/30 10:48:12;;;;;;;57.23;53.20;;;;;;;4.25;100.00;100239.72;5094077;28;20420;-45
2023/01/30 10:50:50;;;;;;;49.83;46.63;;;;;;;4.21;100.00;100238.41;5094105;28;20413;-42
2023/01/30 10:53:26;;;;;;;57.70;53.50;;;;;;;4.25;100.00;100244.19;5093670;28;20448;-43
2023/01/30 10:56:00;;;;;;;54.07;50.37;;;;;;;4.20;100.00;100249.13;5093623;28;20460;-49
2023/01/30 10:58:38;;;;;;;47.57;44.30;;;;;;;4.20;100.00;100242.06;5093859;28;20464;-43
2023/01/30 11:01:11;;;;;;;43.53;40.90;;;;;;;4.21;100.00;100234.97;5056526;28;1067541;-45
2023/01/30 11:03:46;;;;;;;41.93;38.37;;;;;;;4.34;100.00;100222.06;5094203;28;20739;-42
2023/01/30 11:06:17;;;;;;;40.50;37.20;;;;;;;4.45;100.00;100219.03;5094874;28;20849;-45
2023/01/30 11:08:45;;;;;;;43.13;39.00;;;;;;;4.71;100.00;100230.19;5094846;28;20417;-43
2023/01/30 11:11:31;;;;;;;40.70;37.37;;;;;;;5.06;100.00;100222.75;5094545;28;20452;-48
2023/01/30 11:14:04;;;;;;;37.90;34.60;;;;;;;5.35;100.00;100223.72;5094308;28;20472;-45
2023/01/30 11:16:42;;;;;;;37.63;34.30;;;;;;;5.57;100.00;100216.81;5095120;28;20479;-43
2023/01/30 11:19:10;;;;;;;34.80;32.07;;;;;;;5.76;100.00;100232.19;5094670;28;20496;-43
2023/01/30 11:21:50;;;;;;;32.63;30.13;;;;;;;5.98;100.00;100227.88;5094443;28;20444;-42
2023/01/30 11:24:20;;;;;;;38.97;35.03;;;;;;;5.80;100.00;100222.06;5094024;28;20469;-43
2023/01/30 11:26:48;;;;;;;36.17;33.37;;;;;;;5.59;100.00;100225.38;5094674;28;20509;-43
2023/01/30 11:29:25;;;;;;;34.93;32.53;;;;;;;5.08;100.00;100221.56;5094113;28;20448;-47
2023/01/30 11:31:54;;;;;;;33.67;30.93;;;;;;;4.96;100.00;100238.81;5094437;28;20498;-45